createdAt,value
2019-01-10T00:00:31.616Z,54.99
2019-01-10T00:03:01.263Z,55.10
2019-01-10T00:05:31.018Z,55.12
2019-01-10T00:08:00.549Z,54.42
2019-01-10T00:10:30.237Z,54.03
2019-01-10T00:12:59.773Z,54.74
2019-01-10T00:15:29.522Z,54.22
2019-01-10T00:17:59.171Z,55.08
2019-01-10T00:20:28.829Z,54.66
2019-01-10T00:22:58.442Z,53.74
2019-01-10T00:25:28.016Z,53.15
2019-01-10T00:27:58.855Z,54.29
2019-01-10T00:30:28.511Z,54.09
2019-01-10T00:32:58.141Z,53.64
2019-01-10T00:35:27.703Z,53.72
2019-01-10T00:37:57.363Z,53.67
2019-01-10T00:40:27.022Z,54.21
2019-01-10T00:42:56.687Z,54.90
2019-01-10T00:45:26.337Z,55.15
2019-01-10T00:47:55.972Z,55.30
2019-01-10T00:50:26.072Z,54.97
2019-01-10T00:52:55.732Z,54.93
2019-01-10T00:55:25.361Z,55.24
2019-01-10T00:57:54.994Z,55.08
2019-01-10T01:00:25.965Z,55.14
2019-01-10T01:02:55.585Z,54.75
2019-01-10T01:05:25.272Z,54.68
2019-01-10T01:07:55.000Z,54.85
2019-01-10T01:10:26.454Z,54.79
2019-01-10T01:12:58.784Z,54.56
2019-01-10T01:15:27.490Z,55.04
2019-01-10T01:17:57.159Z,55.07
2019-01-10T01:20:26.968Z,55.07
2019-01-10T01:22:56.645Z,55.19
2019-01-10T01:25:26.314Z,55.10
2019-01-10T01:27:55.966Z,54.69
2019-01-10T01:30:26.010Z,54.82
2019-01-10T01:32:55.828Z,55.31
2019-01-10T01:35:25.428Z,54.84
2019-01-10T01:37:55.217Z,54.44
2019-01-10T01:40:24.843Z,53.41
2019-01-10T01:42:54.531Z,53.77
2019-01-10T01:45:24.090Z,54.97
2019-01-10T01:47:53.755Z,54.82
2019-01-10T01:50:24.334Z,56.00
2019-01-10T01:52:53.988Z,55.79
2019-01-10T01:55:23.644Z,56.75
2019-01-10T01:57:53.306Z,56.09
2019-01-10T02:00:24.178Z,56.31
2019-01-10T02:02:53.862Z,55.85
2019-01-10T02:05:23.590Z,54.47
2019-01-10T02:07:53.396Z,53.11
2019-01-10T02:10:27.642Z,52.02
2019-01-10T02:12:57.931Z,52.73
2019-01-10T02:15:27.550Z,51.92
2019-01-10T02:17:57.199Z,51.49
2019-01-10T02:20:26.766Z,50.79
2019-01-10T02:22:56.470Z,51.24
2019-01-10T02:25:26.107Z,51.14
2019-01-10T02:27:55.586Z,50.80
2019-01-10T02:30:25.827Z,50.83
2019-01-10T02:32:55.420Z,50.99
2019-01-10T02:35:25.143Z,50.97
2019-01-10T02:37:54.767Z,51.24
2019-01-10T02:40:24.445Z,51.01
2019-01-10T02:42:54.178Z,50.60
2019-01-10T02:45:23.847Z,50.38
2019-01-10T02:47:53.478Z,50.57
2019-01-10T02:50:23.896Z,51.09
2019-01-10T02:52:53.519Z,51.21
2019-01-10T02:55:23.225Z,51.37
2019-01-10T02:57:52.855Z,51.67
2019-01-10T03:00:26.218Z,51.85
2019-01-10T03:02:55.842Z,52.28
2019-01-10T03:05:25.538Z,52.01
2019-01-10T03:07:55.289Z,51.21
2019-01-10T03:10:26.381Z,51.84
2019-01-10T03:12:55.958Z,52.18
2019-01-10T03:15:25.575Z,52.79
2019-01-10T03:17:55.217Z,53.73
2019-01-10T03:20:24.898Z,53.62
2019-01-10T03:22:54.562Z,53.42
2019-01-10T03:25:24.227Z,53.90
2019-01-10T03:27:53.891Z,54.78
2019-01-10T03:30:23.579Z,54.54
2019-01-10T03:32:53.175Z,55.79
2019-01-10T03:35:22.858Z,55.74
2019-01-10T03:37:52.526Z,54.30
2019-01-10T03:40:23.024Z,55.66
2019-01-10T03:42:52.609Z,56.40
2019-01-10T03:45:23.276Z,56.00
2019-01-10T03:47:52.882Z,56.05
2019-01-10T03:50:22.547Z,54.58
2019-01-10T03:52:52.218Z,53.47
2019-01-10T03:55:21.869Z,53.05
2019-01-10T03:57:51.545Z,52.59
2019-01-10T04:00:25.298Z,52.38
2019-01-10T04:02:55.058Z,52.55
2019-01-10T04:05:24.724Z,53.72
2019-01-10T04:07:54.378Z,52.89
2019-01-10T04:10:24.026Z,53.49
2019-01-10T04:12:53.618Z,54.40
2019-01-10T04:15:23.247Z,54.19
2019-01-10T04:17:53.098Z,54.09
2019-01-10T04:20:22.724Z,53.50
2019-01-10T04:22:52.376Z,53.72
2019-01-10T04:25:22.021Z,54.58
2019-01-10T04:27:51.672Z,55.23
2019-01-10T04:30:21.873Z,55.22
2019-01-10T04:32:51.529Z,54.87
2019-01-10T04:35:21.175Z,54.54
2019-01-10T04:37:50.945Z,54.61
2019-01-10T04:40:23.582Z,54.97
2019-01-10T04:42:53.312Z,54.84
2019-01-10T04:45:22.996Z,55.97
2019-01-10T04:47:52.654Z,56.45
2019-01-10T04:50:22.200Z,56.89
2019-01-10T04:52:51.883Z,57.13
2019-01-10T04:55:21.526Z,57.65
2019-01-10T04:57:53.073Z,57.95
2019-01-10T05:00:26.236Z,58.06
2019-01-10T05:02:55.908Z,58.10
2019-01-10T05:05:25.505Z,58.51
2019-01-10T05:07:55.136Z,58.75
2019-01-10T05:10:24.872Z,58.92
2019-01-10T05:12:54.585Z,58.99
2019-01-10T05:15:24.197Z,59.00
2019-01-10T05:17:53.868Z,59.16
2019-01-10T05:20:23.662Z,59.18
2019-01-10T05:22:53.424Z,59.28
2019-01-10T05:25:23.022Z,59.67
2019-01-10T05:27:52.725Z,59.80
2019-01-10T05:30:24.095Z,59.84
2019-01-10T05:32:54.484Z,59.94
2019-01-10T05:35:24.143Z,59.81
2019-01-10T05:37:53.794Z,59.94
2019-01-10T05:40:23.340Z,59.94
2019-01-10T05:42:53.018Z,59.94
2019-01-10T05:45:22.605Z,60.09
2019-01-10T05:47:52.355Z,60.12
2019-01-10T05:50:22.122Z,60.17
2019-01-10T05:52:51.779Z,60.18
2019-01-10T05:55:24.898Z,60.37
2019-01-10T05:57:54.566Z,60.32
2019-01-10T06:00:28.421Z,60.39
2019-01-10T06:02:58.591Z,60.52
2019-01-10T06:05:28.146Z,60.24
2019-01-10T06:07:57.827Z,60.02
2019-01-10T06:10:28.831Z,60.03
2019-01-10T06:12:58.609Z,60.02
2019-01-10T06:15:28.401Z,59.91
2019-01-10T06:17:58.057Z,59.70
2019-01-10T06:20:27.688Z,60.04
2019-01-10T06:22:57.329Z,59.92
2019-01-10T06:25:27.127Z,59.74
2019-01-10T06:27:56.853Z,60.07
2019-01-10T06:30:27.472Z,59.93
2019-01-10T06:32:59.237Z,59.95
2019-01-10T06:35:28.889Z,59.78
2019-01-10T06:37:58.481Z,59.52
2019-01-10T06:40:28.151Z,59.11
2019-01-10T06:42:57.810Z,59.77
2019-01-10T06:45:27.454Z,59.78
2019-01-10T06:47:57.091Z,59.94
2019-01-10T06:50:26.796Z,60.04
2019-01-10T06:52:56.445Z,60.04
2019-01-10T06:55:26.089Z,60.20
2019-01-10T06:57:55.830Z,60.09
2019-01-10T07:00:26.289Z,60.27
2019-01-10T07:02:56.088Z,59.99
2019-01-10T07:05:25.735Z,60.32
2019-01-10T07:07:56.646Z,60.17
2019-01-10T07:10:29.147Z,60.44
2019-01-10T07:12:58.898Z,60.93
2019-01-10T07:15:28.578Z,61.03
2019-01-10T07:17:58.313Z,60.69
2019-01-10T07:20:27.990Z,60.98
2019-01-10T07:22:57.561Z,61.07
2019-01-10T07:25:27.204Z,61.13
2019-01-10T07:27:56.885Z,61.17
2019-01-10T07:30:35.911Z,61.04
2019-01-10T07:33:00.807Z,60.95
2019-01-10T07:35:30.450Z,60.87
2019-01-10T07:38:00.033Z,60.59
2019-01-10T07:40:29.770Z,60.62
2019-01-10T07:42:59.330Z,60.38
2019-01-10T07:45:29.571Z,60.85
2019-01-10T07:47:59.193Z,60.51
2019-01-10T07:50:31.005Z,60.25
2019-01-10T07:53:00.798Z,60.05
2019-01-10T07:55:30.460Z,60.42
2019-01-10T07:58:00.297Z,60.57
2019-01-10T08:00:29.986Z,60.25
2019-01-10T08:02:59.722Z,60.00
2019-01-10T08:05:29.395Z,59.92
2019-01-10T08:07:59.139Z,60.03
2019-01-10T08:10:28.711Z,59.70
2019-01-10T08:12:58.391Z,59.48
2019-01-10T08:15:28.143Z,58.99
2019-01-10T08:17:57.792Z,58.58
2019-01-10T08:20:27.445Z,58.50
2019-01-10T08:22:57.111Z,58.31
2019-01-10T08:25:26.764Z,57.73
2019-01-10T08:27:56.312Z,57.34
2019-01-10T08:30:26.492Z,56.81
2019-01-10T08:32:56.133Z,56.90
2019-01-10T08:35:27.414Z,57.22
2019-01-10T08:37:57.183Z,57.12
2019-01-10T08:40:26.776Z,57.41
2019-01-10T08:42:56.416Z,57.54
2019-01-10T08:45:26.053Z,56.92
2019-01-10T08:47:55.766Z,56.80
2019-01-10T08:50:26.421Z,56.74
2019-01-10T08:52:56.050Z,56.42
2019-01-10T08:55:25.446Z,55.90
2019-01-10T08:57:55.184Z,56.01
2019-01-10T09:00:25.457Z,55.86
2019-01-10T09:02:55.631Z,54.99
2019-01-10T09:05:25.304Z,54.45
2019-01-10T09:07:54.888Z,54.54
2019-01-10T09:10:26.663Z,54.07
2019-01-10T09:12:56.314Z,53.01
2019-01-10T09:15:34.352Z,52.25
2019-01-10T09:17:57.506Z,52.15
2019-01-10T09:20:27.072Z,52.32
2019-01-10T09:22:56.681Z,51.64
2019-01-10T09:25:26.163Z,52.07
2019-01-10T09:27:55.696Z,52.00
2019-01-10T09:30:25.237Z,50.65
2019-01-10T09:32:54.923Z,51.24
2019-01-10T09:35:24.510Z,51.45
2019-01-10T09:37:54.118Z,52.43
2019-01-10T09:40:24.210Z,53.11
2019-01-10T09:42:53.844Z,53.14
2019-01-10T09:45:24.895Z,52.40
2019-01-10T09:47:54.512Z,52.25
2019-01-10T09:50:24.395Z,51.53
2019-01-10T09:52:54.554Z,50.68
2019-01-10T09:55:24.207Z,50.07
2019-01-10T09:57:53.841Z,50.48
2019-01-10T10:00:32.391Z,50.67
2019-01-10T10:03:02.041Z,49.71
2019-01-10T10:05:31.822Z,50.21
2019-01-10T10:08:01.582Z,49.61
2019-01-10T10:10:31.239Z,48.39
2019-01-10T10:13:00.882Z,49.54
2019-01-10T10:15:30.356Z,50.42
2019-01-10T10:17:59.985Z,50.03
2019-01-10T10:20:29.646Z,50.77
2019-01-10T10:22:59.214Z,49.77
2019-01-10T10:25:28.873Z,49.59
2019-01-10T10:27:58.438Z,49.04
2019-01-10T10:30:28.082Z,49.63
2019-01-10T10:32:57.645Z,49.99
2019-01-10T10:35:27.303Z,50.47
2019-01-10T10:37:56.875Z,50.16
2019-01-10T10:40:26.526Z,49.64
2019-01-10T10:42:56.201Z,49.84
2019-01-10T10:45:25.970Z,49.78
2019-01-10T10:47:55.606Z,49.38
2019-01-10T10:50:29.502Z,49.38
2019-01-10T10:52:59.181Z,49.46
2019-01-10T10:55:28.877Z,50.04
2019-01-10T10:57:58.798Z,49.66
2019-01-10T11:00:30.340Z,50.40
2019-01-10T11:03:00.020Z,50.37
2019-01-10T11:05:29.969Z,50.35
2019-01-10T11:07:59.610Z,49.32
2019-01-10T11:10:29.244Z,49.46
2019-01-10T11:12:58.874Z,48.67
2019-01-10T11:15:28.628Z,49.41
2019-01-10T11:17:58.415Z,49.23
2019-01-10T11:20:28.000Z,49.42
2019-01-10T11:22:57.733Z,48.13
2019-01-10T11:25:28.731Z,48.32
2019-01-10T11:27:58.968Z,48.09
2019-01-10T11:30:28.682Z,48.05
2019-01-10T11:32:58.410Z,48.30
2019-01-10T11:35:28.173Z,47.74
2019-01-10T11:37:57.852Z,48.30
2019-01-10T11:40:27.405Z,48.42
2019-01-10T11:42:57.054Z,48.50
2019-01-10T11:45:27.521Z,48.23
2019-01-10T11:47:57.188Z,48.23
2019-01-10T11:50:26.770Z,48.54
2019-01-10T11:52:56.401Z,47.79
2019-01-10T11:55:26.081Z,47.45
2019-01-10T11:57:55.749Z,49.02
2019-01-10T12:00:32.769Z,49.34
2019-01-10T12:03:03.943Z,49.12
2019-01-10T12:05:33.592Z,49.95
2019-01-10T12:08:03.271Z,50.37
2019-01-10T12:10:32.829Z,50.74
2019-01-10T12:13:02.500Z,50.41
2019-01-10T12:15:32.055Z,49.75
2019-01-10T12:18:01.590Z,48.61
2019-01-10T12:20:31.170Z,48.33
2019-01-10T12:23:00.720Z,48.13
2019-01-10T12:25:30.371Z,49.25
2019-01-10T12:27:59.921Z,48.30
2019-01-10T12:30:29.476Z,48.13
2019-01-10T12:32:58.962Z,47.35
2019-01-10T12:35:28.598Z,46.85
2019-01-10T12:37:58.361Z,48.05
2019-01-10T12:40:28.091Z,47.22
2019-01-10T12:42:57.705Z,47.22
2019-01-10T12:45:27.389Z,47.36
2019-01-10T12:47:57.120Z,46.99
2019-01-10T12:50:33.970Z,47.62
2019-01-10T12:53:08.128Z,47.53
2019-01-10T12:55:38.076Z,48.50
2019-01-10T12:58:08.274Z,48.00
2019-01-10T13:00:37.924Z,48.15
2019-01-10T13:03:07.376Z,48.55
2019-01-10T13:05:37.140Z,47.75
2019-01-10T13:08:06.739Z,46.63
2019-01-10T13:10:36.379Z,47.06
2019-01-10T13:13:06.124Z,47.43
2019-01-10T13:15:35.786Z,47.13
2019-01-10T13:18:05.532Z,48.00
2019-01-10T13:20:35.309Z,48.37
2019-01-10T13:23:04.896Z,47.35
2019-01-10T13:25:34.302Z,46.95
2019-01-10T13:28:03.699Z,47.53
2019-01-10T13:30:33.095Z,47.81
2019-01-10T13:33:02.487Z,47.75
2019-01-10T13:35:32.246Z,48.50
2019-01-10T13:38:01.847Z,47.99
2019-01-10T13:40:31.548Z,48.19
2019-01-10T13:43:01.251Z,47.49
2019-01-10T13:45:30.835Z,46.53
2019-01-10T13:48:00.496Z,45.63
2019-01-10T13:50:31.278Z,46.03
2019-01-10T13:53:01.154Z,45.66
2019-01-10T13:55:30.776Z,46.14
2019-01-10T13:58:00.567Z,46.20
2019-01-10T14:00:35.522Z,45.86
2019-01-10T14:03:03.041Z,46.82
2019-01-10T14:05:32.593Z,46.34
2019-01-10T14:08:02.300Z,45.90
2019-01-10T14:10:31.916Z,46.22
2019-01-10T14:13:01.481Z,45.72
2019-01-10T14:15:35.238Z,44.44
2019-01-10T14:18:05.514Z,44.13
2019-01-10T14:20:35.236Z,43.60
2019-01-10T14:23:05.067Z,43.38
2019-01-10T14:25:34.657Z,43.80
2019-01-10T14:28:04.336Z,43.40
2019-01-10T14:30:39.031Z,43.93
2019-01-10T14:33:12.903Z,43.49
2019-01-10T14:35:42.438Z,43.15
2019-01-10T14:38:12.285Z,43.14
2019-01-10T14:40:41.827Z,43.22
2019-01-10T14:43:11.498Z,42.84
2019-01-10T14:45:42.105Z,43.19
2019-01-10T14:48:11.837Z,42.68
2019-01-10T14:50:41.414Z,42.74
2019-01-10T14:53:10.962Z,43.16
2019-01-10T14:55:40.438Z,43.09
2019-01-10T14:58:09.970Z,42.03
2019-01-10T15:00:39.538Z,42.14
2019-01-10T15:03:09.135Z,42.11
2019-01-10T15:05:38.659Z,42.89
2019-01-10T15:08:08.214Z,42.79
2019-01-10T15:10:37.748Z,42.82
2019-01-10T15:13:07.400Z,43.25
2019-01-10T15:15:36.977Z,43.39
2019-01-10T15:18:06.636Z,42.79
2019-01-10T15:20:36.198Z,42.57
2019-01-10T15:23:05.953Z,42.91
2019-01-10T15:25:35.715Z,42.71
2019-01-10T15:28:05.478Z,41.70
2019-01-10T15:30:35.134Z,41.97
2019-01-10T15:33:04.817Z,42.84
2019-01-10T15:35:34.490Z,42.71
2019-01-10T15:38:04.110Z,42.50
2019-01-10T15:40:34.515Z,42.29
2019-01-10T15:43:05.464Z,42.50
2019-01-10T15:45:35.030Z,42.39
2019-01-10T15:48:04.627Z,42.76
2019-01-10T15:50:34.323Z,43.17
2019-01-10T15:53:04.057Z,42.88
2019-01-10T15:55:33.729Z,43.22
2019-01-10T15:58:03.515Z,44.06
2019-01-10T16:00:33.135Z,44.34
2019-01-10T16:03:02.698Z,44.52
2019-01-10T16:05:32.373Z,44.77
2019-01-10T16:08:01.820Z,44.65
2019-01-10T16:10:31.267Z,44.21
2019-01-10T16:13:00.818Z,44.08
2019-01-10T16:15:30.378Z,43.58
2019-01-10T16:18:00.037Z,43.40
2019-01-10T16:20:29.675Z,43.60
2019-01-10T16:22:59.258Z,44.05
2019-01-10T16:25:28.909Z,44.01
2019-01-10T16:27:58.479Z,44.37
2019-01-10T16:30:31.407Z,44.25
2019-01-10T16:33:00.974Z,44.73
2019-01-10T16:35:30.776Z,44.68
2019-01-10T16:38:00.390Z,44.47
2019-01-10T16:40:30.031Z,44.39
2019-01-10T16:42:59.694Z,44.04
2019-01-10T16:45:30.698Z,44.23
2019-01-10T16:48:00.222Z,43.46
2019-01-10T16:50:29.897Z,43.97
2019-01-10T16:52:59.465Z,44.13
2019-01-10T16:55:29.167Z,44.11
2019-01-10T16:57:58.779Z,43.92
2019-01-10T17:00:33.049Z,43.97
2019-01-10T17:03:02.728Z,44.23
2019-01-10T17:05:32.660Z,45.31
2019-01-10T17:08:02.338Z,45.50
2019-01-10T17:10:32.089Z,45.28
2019-01-10T17:13:01.630Z,45.19
2019-01-10T17:15:31.279Z,45.57
2019-01-10T17:18:00.839Z,45.81
2019-01-10T17:20:31.689Z,46.44
2019-01-10T17:23:01.389Z,46.54
2019-01-10T17:25:31.080Z,46.81
2019-01-10T17:28:00.631Z,46.89
2019-01-10T17:30:31.430Z,47.09
2019-01-10T17:33:01.487Z,46.56
2019-01-10T17:35:32.766Z,47.33
2019-01-10T17:38:02.950Z,48.03
2019-01-10T17:40:32.568Z,47.71
2019-01-10T17:43:02.793Z,48.01
2019-01-10T17:45:34.225Z,47.81
2019-01-10T17:48:03.864Z,47.85
2019-01-10T17:50:33.503Z,47.88
2019-01-10T17:53:03.166Z,47.46
2019-01-10T17:55:32.712Z,47.39
2019-01-10T17:58:02.356Z,47.45
2019-01-10T18:00:32.138Z,47.65
2019-01-10T18:03:01.788Z,47.38
2019-01-10T18:05:31.277Z,47.23
2019-01-10T18:08:00.934Z,47.11
2019-01-10T18:10:30.515Z,47.25
2019-01-10T18:13:00.286Z,47.35
2019-01-10T18:15:29.938Z,47.28
2019-01-10T18:17:59.678Z,47.33
2019-01-10T18:20:32.047Z,47.69
2019-01-10T18:23:01.878Z,47.99
2019-01-10T18:25:31.448Z,48.03
2019-01-10T18:28:01.075Z,48.08
2019-01-10T18:30:30.540Z,48.11
2019-01-10T18:33:00.090Z,48.50
2019-01-10T18:35:29.961Z,47.64
2019-01-10T18:37:59.745Z,48.67
2019-01-10T18:40:29.388Z,49.81
2019-01-10T18:42:59.090Z,49.74
2019-01-10T18:45:30.841Z,50.00
2019-01-10T18:48:00.542Z,50.78
2019-01-10T18:50:30.169Z,50.64
2019-01-10T18:53:00.024Z,51.40
2019-01-10T18:55:29.871Z,51.46
2019-01-10T18:57:59.557Z,51.41
2019-01-10T19:00:32.416Z,51.13
2019-01-10T19:03:02.389Z,50.93
2019-01-10T19:05:32.367Z,51.41
2019-01-10T19:08:02.183Z,51.59
2019-01-10T19:10:31.871Z,51.51
2019-01-10T19:13:01.506Z,51.11
2019-01-10T19:15:31.152Z,51.52
2019-01-10T19:18:03.487Z,51.22
2019-01-10T19:20:33.355Z,51.92
2019-01-10T19:23:03.517Z,51.83
2019-01-10T19:25:33.191Z,52.33
2019-01-10T19:28:03.023Z,52.19
2019-01-10T19:30:37.816Z,52.42
2019-01-10T19:33:07.375Z,52.78
2019-01-10T19:35:36.932Z,52.74
2019-01-10T19:38:07.607Z,52.58
2019-01-10T19:40:37.395Z,52.52
2019-01-10T19:43:06.967Z,52.46
2019-01-10T19:45:36.783Z,52.72
2019-01-10T19:48:09.832Z,52.66
2019-01-10T19:50:37.826Z,52.95
2019-01-10T19:53:07.507Z,55.78
2019-01-10T19:55:37.077Z,58.08
2019-01-10T19:58:06.750Z,59.76
2019-01-10T20:00:41.907Z,60.39
2019-01-10T20:03:11.787Z,58.77
2019-01-10T20:05:41.626Z,57.45
2019-01-10T20:08:11.349Z,56.04
2019-01-10T20:10:40.976Z,55.45
2019-01-10T20:13:10.628Z,54.86
2019-01-10T20:15:40.507Z,54.73
2019-01-10T20:18:15.865Z,54.49
2019-01-10T20:20:42.480Z,54.49
2019-01-10T20:23:14.908Z,54.70
2019-01-10T20:25:44.632Z,54.66
2019-01-10T20:28:14.342Z,54.73
2019-01-10T20:30:44.021Z,54.91
2019-01-10T20:33:13.687Z,54.96
2019-01-10T20:35:43.559Z,54.69
2019-01-10T20:38:13.270Z,54.82
2019-01-10T20:40:42.957Z,55.19
2019-01-10T20:43:12.586Z,55.18
2019-01-10T20:45:42.941Z,54.84
2019-01-10T20:48:12.631Z,54.90
2019-01-10T20:50:42.311Z,54.83
2019-01-10T20:53:11.994Z,54.59
2019-01-10T20:55:41.712Z,54.41
2019-01-10T20:58:11.793Z,54.16
2019-01-10T21:00:41.481Z,53.93
2019-01-10T21:03:11.109Z,53.79
2019-01-10T21:05:40.885Z,53.50
2019-01-10T21:08:11.006Z,53.38
2019-01-10T21:10:40.759Z,53.36
2019-01-10T21:13:10.367Z,53.02
2019-01-10T21:15:40.161Z,53.26
2019-01-10T21:18:10.022Z,53.90
2019-01-10T21:20:39.650Z,53.98
2019-01-10T21:23:09.448Z,53.96
2019-01-10T21:25:39.337Z,53.96
2019-01-10T21:28:20.486Z,53.86
2019-01-10T21:30:50.163Z,53.81
2019-01-10T21:33:19.839Z,53.97
2019-01-10T21:35:49.509Z,54.04
2019-01-10T21:38:19.247Z,54.08
2019-01-10T21:40:48.913Z,54.01
2019-01-10T21:43:18.537Z,53.94
2019-01-10T21:45:48.217Z,53.96
2019-01-10T21:48:17.882Z,54.30
2019-01-10T21:50:47.490Z,53.97
2019-01-10T21:53:17.135Z,54.26
2019-01-10T21:55:47.416Z,56.39
2019-01-10T21:58:26.736Z,57.92
2019-01-10T22:00:58.447Z,57.60
2019-01-10T22:03:29.011Z,56.78
2019-01-10T22:05:59.491Z,56.43
2019-01-10T22:08:35.358Z,56.06
2019-01-10T22:11:04.950Z,55.53
2019-01-10T22:13:35.419Z,54.69
2019-01-10T22:16:08.433Z,54.76
2019-01-10T22:18:41.474Z,54.51
2019-01-10T22:21:09.524Z,54.00
2019-01-10T22:23:39.277Z,53.76
2019-01-10T22:26:09.041Z,53.65
2019-01-10T22:28:38.875Z,53.43
2019-01-10T22:31:08.477Z,53.64
2019-01-10T22:33:38.111Z,53.85
2019-01-10T22:36:07.761Z,54.14
2019-01-10T22:38:37.440Z,54.44
2019-01-10T22:41:07.090Z,54.52
2019-01-10T22:43:36.769Z,54.60
2019-01-10T22:46:06.416Z,53.97
2019-01-10T22:48:36.050Z,57.11
2019-01-10T22:51:05.709Z,58.32
2019-01-10T22:53:35.379Z,57.58
2019-01-10T22:56:04.957Z,56.58
2019-01-10T22:58:34.600Z,56.04
2019-01-10T23:01:29.968Z,55.89
2019-01-10T23:03:59.921Z,56.01
2019-01-10T23:06:29.605Z,55.97
2019-01-10T23:08:59.254Z,55.83
2019-01-10T23:11:28.983Z,55.72
2019-01-10T23:14:02.677Z,55.88
2019-01-10T23:16:33.413Z,55.96
2019-01-10T23:19:03.177Z,56.02
2019-01-10T23:21:34.698Z,56.20
2019-01-10T23:24:09.170Z,56.34
2019-01-10T23:26:38.807Z,56.75
2019-01-10T23:29:08.448Z,56.98
2019-01-10T23:31:38.033Z,57.10
2019-01-10T23:34:13.736Z,57.28
2019-01-10T23:36:44.930Z,57.39
2019-01-10T23:39:19.452Z,57.38
2019-01-10T23:41:49.356Z,57.52
2019-01-10T23:44:19.141Z,57.63
2019-01-10T23:46:48.720Z,57.70
2019-01-10T23:49:18.461Z,57.85
2019-01-10T23:51:48.052Z,57.97
2019-01-10T23:54:18.419Z,57.86
2019-01-10T23:56:48.058Z,57.63
2019-01-10T23:59:17.583Z,57.53
